Sumterville, Florida
Current Conditions -  °F | °C
As of 2:53 PM on Monday 24 Nov 2014 (Local Time) from KLEE Reporting Station
Scattered Clouds Scattered Clouds  
Wind Chill: 30°   Ceiling: Unl
Heat Index: 32°   Visibility: 10mi
Dew Point: 20°   Wind: 8mph
Humidity: 55%   Direction: 220°SW
Pressure: 29.92"   Gusts: 17mph
Location:  28.75°N, 82.06°W
Report Text: KLEE 241953Z 22007G15KT 10SM SCT045 30/20 A2992 RMK AO2 SLP129 T03000200
Loading
Personal Weather Stations






























Interactive Weather Map New forecast layout! Learn more

10-Day Weather Forecast

Advertisements
Track Severe Weather on mobile